createdAt,value
2018-07-14T00:01:34.119Z,74.62
2018-07-14T00:04:02.736Z,74.49
2018-07-14T00:06:31.420Z,75.34
2018-07-14T00:09:00.049Z,76.19
2018-07-14T00:11:28.630Z,77.15
2018-07-14T00:13:57.271Z,76.76
2018-07-14T00:16:26.515Z,75.22
2018-07-14T00:18:55.154Z,75.20
2018-07-14T00:21:23.878Z,75.93
2018-07-14T00:23:52.370Z,75.94
2018-07-14T00:26:20.934Z,76.67
2018-07-14T00:28:49.611Z,75.93
2018-07-14T00:31:18.116Z,75.32
2018-07-14T00:33:46.755Z,76.81
2018-07-14T00:36:15.384Z,75.79
2018-07-14T00:38:43.934Z,76.60
2018-07-14T00:41:12.605Z,75.21
2018-07-14T00:43:41.291Z,75.97
2018-07-14T00:46:09.908Z,75.00
2018-07-14T00:48:38.474Z,75.55
2018-07-14T00:51:07.142Z,75.70
2018-07-14T00:53:35.725Z,75.50
2018-07-14T00:56:04.331Z,75.21
2018-07-14T00:58:32.890Z,78.08
2018-07-14T01:01:01.391Z,75.70
2018-07-14T01:03:29.979Z,75.09
2018-07-14T01:05:58.583Z,74.84
2018-07-14T01:08:27.216Z,75.29
2018-07-14T01:10:55.807Z,75.25
2018-07-14T01:13:24.391Z,75.81
2018-07-14T01:15:52.998Z,76.21
2018-07-14T01:18:21.707Z,75.51
2018-07-14T01:20:50.335Z,76.21
2018-07-14T01:23:18.924Z,76.08
2018-07-14T01:25:47.540Z,76.76
2018-07-14T01:28:16.069Z,76.88
2018-07-14T01:30:44.614Z,76.49
2018-07-14T01:33:13.195Z,76.62
2018-07-14T01:35:41.859Z,76.52
2018-07-14T01:38:10.443Z,76.07
2018-07-14T01:40:39.096Z,75.86
2018-07-14T01:43:07.678Z,77.87
2018-07-14T01:45:36.230Z,76.97
2018-07-14T01:48:05.163Z,76.99
2018-07-14T01:50:33.849Z,76.53
2018-07-14T01:53:02.358Z,76.28
2018-07-14T01:55:30.927Z,77.17
2018-07-14T01:57:59.519Z,77.34
2018-07-14T02:00:28.015Z,77.22
2018-07-14T02:02:56.608Z,78.70
2018-07-14T02:05:25.345Z,76.96
2018-07-14T02:07:53.910Z,76.56
2018-07-14T02:10:22.442Z,76.68
2018-07-14T02:12:51.033Z,77.19
2018-07-14T02:15:19.677Z,76.71
2018-07-14T02:17:48.260Z,77.22
2018-07-14T02:20:16.877Z,77.35
2018-07-14T02:22:45.438Z,77.08
2018-07-14T02:25:13.918Z,77.74
2018-07-14T02:27:42.580Z,76.70
2018-07-14T02:30:11.122Z,76.58
2018-07-14T02:32:39.759Z,77.02
2018-07-14T02:35:08.379Z,76.46
2018-07-14T02:37:37.025Z,77.21
2018-07-14T02:40:05.711Z,76.44
2018-07-14T02:42:34.316Z,76.56
2018-07-14T02:45:02.876Z,76.35
2018-07-14T02:47:31.433Z,77.11
2018-07-14T02:50:00.056Z,76.08
2018-07-14T02:52:28.639Z,76.84
2018-07-14T02:54:57.281Z,76.34
2018-07-14T02:57:25.938Z,76.78
2018-07-14T02:59:54.604Z,76.01
2018-07-14T03:02:23.187Z,75.62
2018-07-14T03:04:51.996Z,75.97
2018-07-14T03:07:20.559Z,76.05
2018-07-14T03:09:49.163Z,75.43
2018-07-14T03:12:17.806Z,75.40
2018-07-14T03:14:46.335Z,74.80
2018-07-14T03:17:15.011Z,74.47
2018-07-14T03:19:43.647Z,74.63
2018-07-14T03:22:12.340Z,74.67
2018-07-14T03:24:40.866Z,74.46
2018-07-14T03:27:09.465Z,74.52
2018-07-14T03:29:37.967Z,74.29
2018-07-14T03:32:06.675Z,74.16
2018-07-14T03:34:35.253Z,74.12
2018-07-14T03:37:03.954Z,74.01
2018-07-14T03:39:32.495Z,73.87
2018-07-14T03:42:01.977Z,74.16
2018-07-14T03:44:30.493Z,73.54
2018-07-14T03:46:59.007Z,73.56
2018-07-14T03:49:27.572Z,73.70
2018-07-14T03:51:56.261Z,73.12
2018-07-14T03:54:24.943Z,73.39
2018-07-14T03:56:54.023Z,73.85
2018-07-14T03:59:22.623Z,73.61
2018-07-14T04:01:51.219Z,72.80
2018-07-14T04:04:19.846Z,72.87
2018-07-14T04:06:48.470Z,72.82
2018-07-14T04:09:16.945Z,73.49
2018-07-14T04:11:45.709Z,72.83
2018-07-14T04:14:14.320Z,72.52
2018-07-14T04:16:42.947Z,72.46
2018-07-14T04:19:11.475Z,71.88
2018-07-14T04:21:40.095Z,72.02
2018-07-14T04:24:08.752Z,71.84
2018-07-14T04:26:37.367Z,71.49
2018-07-14T04:29:06.431Z,71.29
2018-07-14T04:31:35.043Z,71.32
2018-07-14T04:34:03.697Z,71.02
2018-07-14T04:36:32.384Z,70.64
2018-07-14T04:39:01.582Z,70.85
2018-07-14T04:41:30.360Z,70.69
2018-07-14T04:43:58.847Z,70.60
2018-07-14T04:46:27.434Z,70.10
2018-07-14T04:48:55.942Z,70.42
2018-07-14T04:51:24.639Z,70.27
2018-07-14T04:53:53.219Z,69.81
2018-07-14T04:56:21.866Z,69.87
2018-07-14T04:58:50.533Z,69.42
2018-07-14T05:01:19.147Z,69.19
2018-07-14T05:03:47.974Z,68.84
2018-07-14T05:06:16.536Z,68.93
2018-07-14T05:08:45.106Z,68.85
2018-07-14T05:11:13.674Z,68.92
2018-07-14T05:13:42.215Z,68.95
2018-07-14T05:16:10.835Z,68.54
2018-07-14T05:18:39.445Z,68.99
2018-07-14T05:21:08.051Z,68.63
2018-07-14T05:23:36.627Z,68.22
2018-07-14T05:26:05.475Z,68.17
2018-07-14T05:28:34.099Z,67.65
2018-07-14T05:31:02.572Z,67.89
2018-07-14T05:33:31.122Z,67.40
2018-07-14T05:35:59.719Z,67.63
2018-07-14T05:38:28.287Z,67.04
2018-07-14T05:40:56.903Z,67.30
2018-07-14T05:43:25.554Z,67.04
2018-07-14T05:45:54.241Z,66.77
2018-07-14T05:48:22.805Z,66.73
2018-07-14T05:50:51.511Z,66.76
2018-07-14T05:53:20.339Z,66.26
2018-07-14T05:55:48.986Z,66.20
2018-07-14T05:58:17.516Z,65.90
2018-07-14T06:00:46.159Z,65.62
2018-07-14T06:03:14.728Z,66.46
2018-07-14T06:05:43.414Z,65.97
2018-07-14T06:08:12.099Z,65.64
2018-07-14T06:10:40.739Z,65.08
2018-07-14T06:13:09.297Z,65.01
2018-07-14T06:15:37.891Z,65.04
2018-07-14T06:18:06.623Z,65.14
2018-07-14T06:20:35.218Z,65.58
2018-07-14T06:23:04.005Z,65.56
2018-07-14T06:25:32.692Z,65.59
2018-07-14T06:28:01.287Z,65.49
2018-07-14T06:30:29.960Z,64.69
2018-07-14T06:32:58.521Z,65.38
2018-07-14T06:35:27.127Z,64.54
2018-07-14T06:37:55.635Z,64.37
2018-07-14T06:40:24.271Z,63.65
2018-07-14T06:42:52.818Z,63.76
2018-07-14T06:45:21.460Z,63.50
2018-07-14T06:47:50.041Z,63.60
2018-07-14T06:50:18.663Z,63.52
2018-07-14T06:52:47.223Z,63.56
2018-07-14T06:55:15.814Z,62.81
2018-07-14T06:57:44.591Z,61.98
2018-07-14T07:00:13.317Z,61.77
2018-07-14T07:02:42.051Z,62.05
2018-07-14T07:05:10.553Z,62.03
2018-07-14T07:07:39.791Z,62.41
2018-07-14T07:10:08.371Z,62.08
2018-07-14T07:12:37.202Z,61.54
2018-07-14T07:15:05.813Z,62.37
2018-07-14T07:17:34.535Z,61.65
2018-07-14T07:20:03.300Z,62.37
2018-07-14T07:22:32.045Z,62.17
2018-07-14T07:25:00.581Z,61.68
2018-07-14T07:27:29.196Z,61.61
2018-07-14T07:29:57.724Z,60.74
2018-07-14T07:32:26.274Z,59.89
2018-07-14T07:34:54.871Z,60.56
2018-07-14T07:37:23.440Z,60.22
2018-07-14T07:39:52.587Z,60.77
2018-07-14T07:42:21.156Z,60.89
2018-07-14T07:44:49.802Z,60.27
2018-07-14T07:47:18.354Z,60.29
2018-07-14T07:49:47.070Z,60.13
2018-07-14T07:52:15.671Z,59.66
2018-07-14T07:54:44.454Z,59.74
2018-07-14T07:57:13.184Z,59.74
2018-07-14T07:59:41.890Z,59.78
2018-07-14T08:02:11.213Z,58.91
2018-07-14T08:04:40.208Z,59.90
2018-07-14T08:07:09.448Z,59.57
2018-07-14T08:09:38.085Z,58.69
2018-07-14T08:12:06.616Z,58.79
2018-07-14T08:14:35.196Z,58.69
2018-07-14T08:17:04.759Z,58.65
2018-07-14T08:19:34.187Z,58.71
2018-07-14T08:22:02.763Z,58.20
2018-07-14T08:24:31.313Z,57.58
2018-07-14T08:26:59.944Z,58.91
2018-07-14T08:29:28.514Z,58.33
2018-07-14T08:31:57.285Z,57.78
2018-07-14T08:34:26.070Z,58.13
2018-07-14T08:36:54.754Z,58.13
2018-07-14T08:39:23.288Z,57.28
2018-07-14T08:41:52.535Z,57.50
2018-07-14T08:44:21.118Z,56.82
2018-07-14T08:46:49.802Z,56.73
2018-07-14T08:49:19.726Z,56.67
2018-07-14T08:51:48.892Z,56.39
2018-07-14T08:54:17.803Z,56.32
2018-07-14T08:56:46.489Z,55.56
2018-07-14T08:59:15.119Z,56.16
2018-07-14T09:01:43.856Z,55.51
2018-07-14T09:04:12.555Z,54.64
2018-07-14T09:06:41.210Z,54.09
2018-07-14T09:09:09.863Z,55.12
2018-07-14T09:11:38.481Z,54.69
2018-07-14T09:14:07.227Z,55.03
2018-07-14T09:16:35.889Z,54.78
2018-07-14T09:19:04.587Z,54.90
2018-07-14T09:21:33.782Z,55.17
2018-07-14T09:24:02.332Z,55.02
2018-07-14T09:26:30.950Z,54.12
2018-07-14T09:28:59.497Z,53.52
2018-07-14T09:31:28.064Z,54.23
2018-07-14T09:33:56.574Z,53.56
2018-07-14T09:36:25.787Z,53.15
2018-07-14T09:38:54.445Z,53.43
2018-07-14T09:41:22.967Z,54.36
2018-07-14T09:43:51.630Z,53.61
2018-07-14T09:46:20.792Z,53.34
2018-07-14T09:48:49.306Z,54.35
2018-07-14T09:51:17.847Z,53.82
2018-07-14T09:53:46.361Z,53.61
2018-07-14T09:56:14.900Z,53.56
2018-07-14T09:58:43.518Z,53.86
2018-07-14T10:01:12.152Z,54.03
2018-07-14T10:03:41.303Z,53.73
2018-07-14T10:06:09.937Z,53.97
2018-07-14T10:08:38.670Z,54.63
2018-07-14T10:11:08.066Z,54.77
2018-07-14T10:13:36.578Z,54.73
2018-07-14T10:16:05.324Z,54.93
2018-07-14T10:18:33.846Z,54.05
2018-07-14T10:21:02.466Z,53.70
2018-07-14T10:23:31.015Z,53.77
2018-07-14T10:25:59.640Z,54.10
2018-07-14T10:28:28.308Z,53.18
2018-07-14T10:30:56.875Z,53.11
2018-07-14T10:33:26.136Z,53.32
2018-07-14T10:35:54.719Z,53.97
2018-07-14T10:38:23.278Z,52.98
2018-07-14T10:40:51.988Z,53.86
2018-07-14T10:43:21.184Z,53.03
2018-07-14T10:45:49.790Z,54.07
2018-07-14T10:48:18.350Z,54.32
2018-07-14T10:50:46.950Z,54.26
2018-07-14T10:53:15.558Z,53.62
2018-07-14T10:55:44.238Z,53.36
2018-07-14T10:58:12.951Z,53.76
2018-07-14T11:00:41.523Z,53.10
2018-07-14T11:03:10.111Z,52.86
2018-07-14T11:05:38.739Z,52.72
2018-07-14T11:08:07.342Z,53.06
2018-07-14T11:10:35.873Z,53.50
2018-07-14T11:13:04.592Z,53.21
2018-07-14T11:15:33.090Z,52.68
2018-07-14T11:18:01.723Z,52.75
2018-07-14T11:20:30.343Z,52.26
2018-07-14T11:22:58.954Z,52.55
2018-07-14T11:25:27.572Z,52.75
2018-07-14T11:27:56.190Z,53.16
2018-07-14T11:30:24.809Z,52.85
2018-07-14T11:32:53.325Z,53.09
2018-07-14T11:35:21.854Z,52.27
2018-07-14T11:37:50.620Z,51.19
2018-07-14T11:40:19.127Z,52.09
2018-07-14T11:42:47.711Z,51.56
2018-07-14T11:45:16.295Z,51.48
2018-07-14T11:47:44.982Z,51.55
2018-07-14T11:50:13.642Z,50.63
2018-07-14T11:52:42.224Z,51.06
2018-07-14T11:55:10.905Z,51.19
2018-07-14T11:57:39.494Z,51.11
2018-07-14T12:00:08.247Z,51.67
2018-07-14T12:02:36.961Z,50.52
2018-07-14T12:05:05.962Z,50.64
2018-07-14T12:07:34.556Z,50.21
2018-07-14T12:10:03.222Z,50.24
2018-07-14T12:12:31.907Z,50.51
2018-07-14T12:15:00.426Z,49.91
2018-07-14T12:17:29.192Z,50.04
2018-07-14T12:19:57.784Z,49.93
2018-07-14T12:22:26.464Z,50.46
2018-07-14T12:24:55.231Z,50.19
2018-07-14T12:27:23.814Z,51.04
2018-07-14T12:29:52.500Z,51.40
2018-07-14T12:32:21.022Z,50.80
2018-07-14T12:34:49.617Z,50.05
2018-07-14T12:37:18.267Z,51.14
2018-07-14T12:39:47.101Z,51.03
2018-07-14T12:42:15.641Z,50.33
2018-07-14T12:44:44.346Z,50.72
2018-07-14T12:47:12.939Z,51.03
2018-07-14T12:49:41.572Z,51.70
2018-07-14T12:52:10.258Z,52.23
2018-07-14T12:54:38.914Z,51.18
2018-07-14T12:57:07.526Z,50.11
2018-07-14T12:59:36.028Z,50.71
2018-07-14T13:02:04.584Z,50.28
2018-07-14T13:04:33.275Z,50.07
2018-07-14T13:07:01.900Z,50.34
2018-07-14T13:09:30.550Z,50.27
2018-07-14T13:11:59.124Z,50.38
2018-07-14T13:14:27.967Z,51.37
2018-07-14T13:16:56.599Z,51.09
2018-07-14T13:19:25.741Z,50.46
2018-07-14T13:21:54.343Z,51.26
2018-07-14T13:24:23.011Z,50.13
2018-07-14T13:26:51.603Z,50.88
2018-07-14T13:29:20.147Z,51.39
2018-07-14T13:31:48.754Z,51.61
2018-07-14T13:34:17.393Z,51.93
2018-07-14T13:36:45.981Z,51.58
2018-07-14T13:39:14.544Z,51.90
2018-07-14T13:41:43.144Z,51.64
2018-07-14T13:44:11.669Z,51.39
2018-07-14T13:46:40.310Z,52.15
2018-07-14T13:49:08.928Z,51.67
2018-07-14T13:51:38.192Z,50.81
2018-07-14T13:54:07.096Z,51.38
2018-07-14T13:56:35.691Z,51.80
2018-07-14T13:59:04.206Z,50.99
2018-07-14T14:01:33.038Z,51.22
2018-07-14T14:04:01.618Z,51.39
2018-07-14T14:06:30.100Z,51.15
2018-07-14T14:08:58.747Z,51.77
2018-07-14T14:11:27.371Z,52.27
2018-07-14T14:13:56.004Z,51.80
2018-07-14T14:16:24.636Z,51.75
2018-07-14T14:18:53.217Z,51.72
2018-07-14T14:21:21.903Z,52.07
2018-07-14T14:23:50.486Z,52.33
2018-07-14T14:26:19.212Z,51.87
2018-07-14T14:28:47.961Z,52.05
2018-07-14T14:31:16.643Z,52.27
2018-07-14T14:33:45.275Z,51.79
2018-07-14T14:36:14.015Z,51.71
2018-07-14T14:38:42.598Z,51.81
2018-07-14T14:41:11.177Z,52.09
2018-07-14T14:43:40.338Z,52.69
2018-07-14T14:46:09.269Z,52.97
2018-07-14T14:48:37.953Z,52.78
2018-07-14T14:51:06.640Z,53.47
2018-07-14T14:53:35.166Z,52.95
2018-07-14T14:56:03.882Z,52.50
2018-07-14T14:58:32.514Z,52.98
2018-07-14T15:01:01.392Z,53.66
2018-07-14T15:03:30.065Z,52.82
2018-07-14T15:05:59.307Z,53.20
2018-07-14T15:08:27.949Z,53.15
2018-07-14T15:10:56.822Z,52.98
2018-07-14T15:13:25.523Z,52.97
2018-07-14T15:15:54.172Z,53.50
2018-07-14T15:18:22.790Z,52.92
2018-07-14T15:20:51.374Z,53.13
2018-07-14T15:23:20.059Z,54.14
2018-07-14T15:25:48.736Z,54.52
2018-07-14T15:28:17.245Z,55.12
2018-07-14T15:30:45.909Z,55.80
2018-07-14T15:33:14.662Z,55.28
2018-07-14T15:35:43.223Z,55.21
2018-07-14T15:38:11.781Z,54.96
2018-07-14T15:40:40.344Z,55.14
2018-07-14T15:43:08.951Z,55.51
2018-07-14T15:45:38.123Z,55.55
2018-07-14T15:48:06.610Z,55.72
2018-07-14T15:50:35.187Z,55.33
2018-07-14T15:53:03.721Z,55.38
2018-07-14T15:55:32.275Z,54.75
2018-07-14T15:58:01.040Z,54.72
2018-07-14T16:00:29.621Z,54.65
2018-07-14T16:02:58.235Z,55.26
2018-07-14T16:05:26.889Z,55.11
2018-07-14T16:07:55.507Z,54.89
2018-07-14T16:10:24.161Z,55.92
2018-07-14T16:12:53.458Z,55.32
2018-07-14T16:15:22.112Z,56.02
2018-07-14T16:17:50.828Z,55.56
2018-07-14T16:20:19.478Z,55.78
2018-07-14T16:22:48.095Z,55.53
2018-07-14T16:25:16.781Z,55.86
2018-07-14T16:27:45.510Z,55.65
2018-07-14T16:30:14.120Z,56.13
2018-07-14T16:32:42.695Z,56.01
2018-07-14T16:35:11.350Z,55.93
2018-07-14T16:37:40.617Z,56.00
2018-07-14T16:40:09.259Z,56.00
2018-07-14T16:42:37.946Z,55.52
2018-07-14T16:45:06.851Z,55.77
2018-07-14T16:47:35.356Z,55.00
2018-07-14T16:50:03.945Z,55.78
2018-07-14T16:52:32.732Z,55.86
2018-07-14T16:55:01.236Z,55.84
2018-07-14T16:57:29.803Z,55.13
2018-07-14T16:59:58.477Z,54.74
2018-07-14T17:02:27.164Z,54.30
2018-07-14T17:04:55.747Z,54.18
2018-07-14T17:07:24.439Z,54.50
2018-07-14T17:09:53.119Z,54.95
2018-07-14T17:12:21.764Z,55.21
2018-07-14T17:14:50.281Z,54.98
2018-07-14T17:17:18.891Z,55.04
2018-07-14T17:19:47.451Z,55.03
2018-07-14T17:22:16.033Z,55.58
2018-07-14T17:24:44.716Z,55.90
2018-07-14T17:27:13.339Z,56.47
2018-07-14T17:29:41.982Z,56.27
2018-07-14T17:32:10.503Z,56.70
2018-07-14T17:34:39.095Z,56.51
2018-07-14T17:37:07.665Z,57.00
2018-07-14T17:39:36.215Z,57.31
2018-07-14T17:42:04.847Z,57.50
2018-07-14T17:44:33.419Z,57.51
2018-07-14T17:47:01.965Z,57.32
2018-07-14T17:49:30.545Z,57.62
2018-07-14T17:51:59.089Z,57.97
2018-07-14T17:54:27.654Z,57.63
2018-07-14T17:56:56.293Z,57.50
2018-07-14T17:59:25.856Z,58.81
2018-07-14T18:01:54.531Z,58.48
2018-07-14T18:04:23.060Z,58.84
2018-07-14T18:06:51.818Z,58.97
2018-07-14T18:09:20.848Z,59.12
2018-07-14T18:11:49.513Z,58.78
2018-07-14T18:14:18.051Z,59.76
2018-07-14T18:16:46.579Z,59.72
2018-07-14T18:19:15.280Z,59.26
2018-07-14T18:21:43.920Z,59.93
2018-07-14T18:24:13.060Z,59.80
2018-07-14T18:26:56.118Z,59.49
2018-07-14T18:29:25.120Z,60.46
2018-07-14T18:31:53.654Z,61.15
2018-07-14T18:34:22.955Z,62.22
2018-07-14T18:36:51.539Z,60.96
2018-07-14T18:39:20.040Z,61.48
2018-07-14T18:41:48.651Z,61.80
2018-07-14T18:44:17.181Z,61.28
2018-07-14T18:46:45.769Z,62.22
2018-07-14T18:49:14.487Z,62.24
2018-07-14T18:51:43.139Z,62.14
2018-07-14T18:54:11.639Z,62.69
2018-07-14T18:56:40.263Z,62.65
2018-07-14T18:59:08.888Z,62.38
2018-07-14T19:01:37.593Z,62.43
2018-07-14T19:04:06.515Z,62.75
2018-07-14T19:06:35.104Z,62.57
2018-07-14T19:09:04.107Z,64.07
2018-07-14T19:11:32.644Z,64.20
2018-07-14T19:14:01.957Z,63.34
2018-07-14T19:16:31.649Z,62.67
2018-07-14T19:19:00.171Z,63.14
2018-07-14T19:21:28.849Z,62.98
2018-07-14T19:23:57.491Z,63.54
2018-07-14T19:26:26.186Z,63.11
2018-07-14T19:28:54.851Z,63.46
2018-07-14T19:31:23.535Z,64.05
2018-07-14T19:33:52.706Z,64.21
2018-07-14T19:36:21.471Z,64.34
2018-07-14T19:38:50.055Z,64.23
2018-07-14T19:41:18.591Z,64.83
2018-07-14T19:43:47.234Z,64.49
2018-07-14T19:46:15.901Z,64.44
2018-07-14T19:48:44.541Z,64.41
2018-07-14T19:51:13.723Z,64.31
2018-07-14T19:53:42.523Z,65.23
2018-07-14T19:56:11.219Z,66.00
2018-07-14T19:58:39.703Z,65.21
2018-07-14T20:01:08.299Z,66.20
2018-07-14T20:03:37.469Z,66.63
2018-07-14T20:06:06.123Z,67.29
2018-07-14T20:08:34.945Z,67.04
2018-07-14T20:11:03.691Z,66.91
2018-07-14T20:13:33.073Z,66.97
2018-07-14T20:16:06.638Z,66.04
2018-07-14T20:18:35.725Z,66.91
2018-07-14T20:21:04.362Z,66.58
2018-07-14T20:23:33.125Z,66.37
2018-07-14T20:26:01.723Z,66.74
2018-07-14T20:28:30.363Z,66.66
2018-07-14T20:30:59.583Z,67.85
2018-07-14T20:33:28.143Z,67.98
2018-07-14T20:35:56.829Z,68.12
2018-07-14T20:38:25.391Z,68.04
2018-07-14T20:40:54.506Z,68.84
2018-07-14T20:43:23.089Z,67.82
2018-07-14T20:45:51.746Z,67.70
2018-07-14T20:48:20.357Z,68.57
2018-07-14T20:50:48.872Z,68.30
2018-07-14T20:53:17.524Z,67.92
2018-07-14T20:55:46.208Z,68.20
2018-07-14T20:58:14.794Z,68.96
2018-07-14T21:00:43.476Z,68.77
2018-07-14T21:03:12.089Z,68.45
2018-07-14T21:05:40.670Z,68.88
2018-07-14T21:08:09.324Z,69.04
2018-07-14T21:10:37.959Z,70.03
2018-07-14T21:13:06.600Z,69.22
2018-07-14T21:15:35.283Z,69.12
2018-07-14T21:18:03.923Z,69.03
2018-07-14T21:20:32.656Z,69.26
2018-07-14T21:23:01.257Z,69.42
2018-07-14T21:25:29.964Z,69.34
2018-07-14T21:27:59.219Z,69.51
2018-07-14T21:30:27.908Z,69.63
2018-07-14T21:32:56.464Z,68.76
2018-07-14T21:35:25.380Z,69.13
2018-07-14T21:37:54.206Z,69.11
2018-07-14T21:40:22.852Z,69.52
2018-07-14T21:42:52.229Z,69.17
2018-07-14T21:45:20.837Z,68.55
2018-07-14T21:47:49.469Z,68.96
2018-07-14T21:50:18.103Z,68.59
2018-07-14T21:52:46.768Z,68.33
2018-07-14T21:55:15.917Z,68.85
2018-07-14T21:57:44.671Z,68.65
2018-07-14T22:00:23.411Z,68.58
2018-07-14T22:02:51.943Z,68.88
2018-07-14T22:05:20.573Z,68.61
2018-07-14T22:07:49.247Z,68.18
2018-07-14T22:10:17.991Z,68.40
2018-07-14T22:12:47.126Z,68.62
2018-07-14T22:15:16.118Z,68.74
2018-07-14T22:17:44.659Z,68.41
2018-07-14T22:20:13.195Z,69.62
2018-07-14T22:22:41.775Z,69.49
2018-07-14T22:25:10.395Z,68.61
2018-07-14T22:27:38.995Z,68.35
2018-07-14T22:30:07.704Z,68.74
2018-07-14T22:32:36.455Z,69.33
2018-07-14T22:35:05.035Z,68.77
2018-07-14T22:37:33.672Z,69.30
2018-07-14T22:40:02.272Z,69.27
2018-07-14T22:42:30.857Z,69.55
2018-07-14T22:44:59.371Z,69.09
2018-07-14T22:47:27.915Z,69.40
2018-07-14T22:49:56.423Z,70.20
2018-07-14T22:52:25.068Z,69.96
2018-07-14T22:54:53.652Z,69.57
2018-07-14T22:57:22.232Z,69.43
2018-07-14T22:59:50.979Z,68.92
2018-07-14T23:02:19.564Z,69.39
2018-07-14T23:04:48.247Z,69.77
2018-07-14T23:07:16.870Z,69.44
2018-07-14T23:09:45.556Z,68.89
2018-07-14T23:12:14.179Z,68.97
2018-07-14T23:14:42.810Z,69.36
2018-07-14T23:17:11.510Z,69.52
2018-07-14T23:19:40.043Z,68.84
2018-07-14T23:22:08.675Z,69.66
2018-07-14T23:24:37.334Z,69.97
2018-07-14T23:27:05.893Z,70.04
2018-07-14T23:29:34.403Z,69.31
2018-07-14T23:32:02.926Z,68.94
2018-07-14T23:34:31.590Z,68.44
2018-07-14T23:37:00.276Z,68.34
2018-07-14T23:39:28.874Z,68.71
2018-07-14T23:41:57.876Z,68.62
2018-07-14T23:44:26.408Z,68.70
2018-07-14T23:46:55.874Z,68.84
2018-07-14T23:49:24.376Z,69.48
2018-07-14T23:51:52.886Z,69.00
2018-07-14T23:54:21.379Z,69.01
2018-07-14T23:56:49.963Z,68.91
2018-07-14T23:59:18.466Z,69.67
